Aviation Digital Data Service (ADDS)

Output produced by METARs form (2201 UTC 21 May 2022)
found at http://www.aviationweather.gov/metar/data/
 
METAR text: RJSI 211000Z VRB02KT 9999 FEW020 BKN030 18/14 Q1010
Conditions at: RJSI (HANAMAKI AIRPORT, JP) observed 1000 UTC 21 May 2022
Temperature: 18.0°C (64°F)
Dewpoint: 14.0°C (57°F) [RH = 77%]
Pressure (altimeter): 29.82 inches Hg (1010.0 mb)
Winds: variable direction winds at 2 MPH (2 knots; 1.0 m/s)
Visibility: 6 or more miles (10+ km)
Ceiling: 3000 feet AGL
Clouds: few clouds at 2000 feet AGL
broken clouds at 3000 feet AGL
Weather: no significant weather observed at this time

METAR text: RJSI 210900Z 12004KT 030V170 9999 FEW030 SCT040 BKN050 18/14 Q1010
Conditions at: RJSI (HANAMAKI AIRPORT, JP) observed 0900 UTC 21 May 2022
Temperature: 18.0°C (64°F)
Dewpoint: 14.0°C (57°F) [RH = 77%]
Pressure (altimeter): 29.82 inches Hg (1010.0 mb)
Winds: from the ESE (120 degrees) at 5 MPH (4 knots; 2.1 m/s)
Visibility: 6 or more miles (10+ km)
Ceiling: 5000 feet AGL
Clouds: few clouds at 3000 feet AGL
scattered clouds at 4000 feet AGL
broken clouds at 5000 feet AGL
Weather: no significant weather observed at this time

METAR text: RJSI 210837Z 30005KT 270V340 9999 FEW030 SCT040 FEW040CB BKN050 18/14 Q1009 RMK 1CU030 3CU040 1CB040 6CU050 A2982 CB 25KM W MOV NW
Conditions at: RJSI (HANAMAKI AIRPORT, JP) observed 0837 UTC 21 May 2022
Temperature: 18.0°C (64°F)
Dewpoint: 14.0°C (57°F) [RH = 77%]
Pressure (altimeter): 29.79 inches Hg (1009.0 mb)
Winds: from the WNW (300 degrees) at 6 MPH (5 knots; 2.6 m/s)
Visibility: 6 or more miles (10+ km)
Ceiling: 5000 feet AGL
Clouds: few clouds at 3000 feet AGL
scattered clouds at 4000 feet AGL
few clouds at 4000 feet AGL
broken clouds at 5000 feet AGL
Weather: no significant weather observed at this time

METAR text: RJSI 210800Z VRB04KT 9999 -TSRA FEW030 SCT040CB BKN050 19/13 Q1009
Conditions at: RJSI (HANAMAKI AIRPORT, JP) observed 0800 UTC 21 May 2022
Temperature: 19.0°C (66°F)
Dewpoint: 13.0°C (55°F) [RH = 68%]
Pressure (altimeter): 29.79 inches Hg (1009.0 mb)
Winds: variable direction winds at 5 MPH (4 knots; 2.1 m/s)
Visibility: 6 or more miles (10+ km)
Ceiling: 5000 feet AGL
Clouds: few clouds at 3000 feet AGL
scattered clouds at 4000 feet AGL
broken clouds at 5000 feet AGL
Weather: -TSRA  (light rain associated with thunderstorm(s))

METAR text: RJSI 210710Z 02006KT 9999 TS FEW030 FEW035CB SCT040 BKN050 24/10 Q1008 RMK 1CU030 1CB035 3CU040 7CU050 A2979 FBL TS 20KM S MOV N
Conditions at: RJSI (HANAMAKI AIRPORT, JP) observed 0710 UTC 21 May 2022
Temperature: 24.0°C (75°F)
Dewpoint: 10.0°C (50°F) [RH = 41%]
Pressure (altimeter): 29.76 inches Hg (1008.0 mb)
Winds: from the NNE (20 degrees) at 7 MPH (6 knots; 3.1 m/s)
Visibility: 6 or more miles (10+ km)
Ceiling: 5000 feet AGL
Clouds: few clouds at 3000 feet AGL
few clouds at 3500 feet AGL
scattered clouds at 4000 feet AGL
broken clouds at 5000 feet AGL
Weather: TS  (thunderstorm)

METAR text: RJSI 210700Z 03007KT 360V070 9999 FEW030 FEW035CB BKN050 BKN/// 25/09 Q1008
Conditions at: RJSI (HANAMAKI AIRPORT, JP) observed 0700 UTC 21 May 2022
Temperature: 25.0°C (77°F)
Dewpoint: 9.0°C (48°F) [RH = 36%]
Pressure (altimeter): 29.76 inches Hg (1008.0 mb)
Winds: from the NNE (30 degrees) at 8 MPH (7 knots; 3.6 m/s)
Visibility: 6 or more miles (10+ km)
Ceiling: 5000 feet AGL
Clouds: few clouds at 3000 feet AGL
few clouds at 3500 feet AGL
broken clouds at 5000 feet AGL
Weather: no significant weather observed at this time

METAR text: RJSI 210600Z 25005KT 210V300 9999 FEW040 SCT050 BKN/// 26/08 Q1009
Conditions at: RJSI (HANAMAKI AIRPORT, JP) observed 0600 UTC 21 May 2022
Temperature: 26.0°C (79°F)
Dewpoint: 8.0°C (46°F) [RH = 32%]
Pressure (altimeter): 29.79 inches Hg (1009.0 mb)
Winds: from the WSW (250 degrees) at 6 MPH (5 knots; 2.6 m/s)
Visibility: 6 or more miles (10+ km)
Ceiling: at least 12,000 feet AGL
Clouds: few clouds at 4000 feet AGL
scattered clouds at 5000 feet AGL
Weather: no significant weather observed at this time

METAR text: RJSI 210500Z 24004KT 140V310 9999 FEW050 BKN110 BKN/// 26/09 Q1009
Conditions at: RJSI (HANAMAKI AIRPORT, JP) observed 0500 UTC 21 May 2022
Temperature: 26.0°C (79°F)
Dewpoint: 9.0°C (48°F) [RH = 34%]
Pressure (altimeter): 29.79 inches Hg (1009.0 mb)
Winds: from the WSW (240 degrees) at 5 MPH (4 knots; 2.1 m/s)
Visibility: 6 or more miles (10+ km)
Ceiling: 11000 feet AGL
Clouds: few clouds at 5000 feet AGL
broken clouds at 11000 feet AGL
Weather: no significant weather observed at this time

METAR text: RJSI 210400Z VRB05KT 9999 FEW050 SCT140 BKN/// 27/07 Q1010
Conditions at: RJSI (HANAMAKI AIRPORT, JP) observed 0400 UTC 21 May 2022
Temperature: 27.0°C (81°F)
Dewpoint: 7.0°C (45°F) [RH = 28%]
Pressure (altimeter): 29.82 inches Hg (1010.0 mb)
Winds: variable direction winds at 6 MPH (5 knots; 2.6 m/s)
Visibility: 6 or more miles (10+ km)
Ceiling: at least 12,000 feet AGL
Clouds: few clouds at 5000 feet AGL
scattered clouds at 14000 feet AGL
Weather: no significant weather observed at this time

METAR text: RJSI 210300Z 18006KT 110V210 9999 FEW040 SCT150 BKN/// 26/10 Q1011
Conditions at: RJSI (HANAMAKI AIRPORT, JP) observed 0300 UTC 21 May 2022
Temperature: 26.0°C (79°F)
Dewpoint: 10.0°C (50°F) [RH = 37%]
Pressure (altimeter): 29.85 inches Hg (1011.0 mb)
Winds: from the S (180 degrees) at 7 MPH (6 knots; 3.1 m/s)
Visibility: 6 or more miles (10+ km)
Ceiling: at least 12,000 feet AGL
Clouds: few clouds at 4000 feet AGL
scattered clouds at 15000 feet AGL
Weather: no significant weather observed at this time

METAR text: RJSI 210200Z 19007KT 170V230 9999 FEW040 SCT150 BKN/// 25/10 Q1011
Conditions at: RJSI (HANAMAKI AIRPORT, JP) observed 0200 UTC 21 May 2022
Temperature: 25.0°C (77°F)
Dewpoint: 10.0°C (50°F) [RH = 39%]
Pressure (altimeter): 29.85 inches Hg (1011.0 mb)
Winds: from the S (190 degrees) at 8 MPH (7 knots; 3.6 m/s)
Visibility: 6 or more miles (10+ km)
Ceiling: at least 12,000 feet AGL
Clouds: few clouds at 4000 feet AGL
scattered clouds at 15000 feet AGL
Weather: no significant weather observed at this time

METAR text: RJSI 210100Z 19003KT 140V250 CAVOK 23/12 Q1012
Conditions at: RJSI (HANAMAKI AIRPORT, JP) observed 0100 UTC 21 May 2022
Temperature: 23.0°C (73°F)
Dewpoint: 12.0°C (54°F) [RH = 50%]
Pressure (altimeter): 29.88 inches Hg (1012.0 mb)
Winds: from the S (190 degrees) at 3 MPH (3 knots; 1.5 m/s)
Visibility: 6 or more miles (10+ km)
Ceiling: ceiling and visibility are OK
Clouds: unknown
Weather: no significant weather observed at this time

METAR text: RJSI 210000Z VRB02KT CAVOK 20/10 Q1012
Conditions at: RJSI (HANAMAKI AIRPORT, JP) observed 0000 UTC 21 May 2022
Temperature: 20.0°C (68°F)
Dewpoint: 10.0°C (50°F) [RH = 53%]
Pressure (altimeter): 29.88 inches Hg (1012.0 mb)
Winds: variable direction winds at 2 MPH (2 knots; 1.0 m/s)
Visibility: 6 or more miles (10+ km)
Ceiling: ceiling and visibility are OK
Clouds: unknown
Weather: no significant weather observed at this time

METAR text: RJSI 202300Z VRB01KT CAVOK 17/10 Q1013
Conditions at: RJSI (HANAMAKI AIRPORT, JP) observed 2300 UTC 20 May 2022
Temperature: 17.0°C (63°F)
Dewpoint: 10.0°C (50°F) [RH = 63%]
Pressure (altimeter): 29.91 inches Hg (1013.0 mb)
Winds: variable direction winds at 1 MPH (1 knots; 0.5 m/s)
Visibility: 6 or more miles (10+ km)
Ceiling: ceiling and visibility are OK
Clouds: unknown
Weather: no significant weather observed at this time

METAR text: RJSI 202240Z VRB02KT CAVOK 16/10 Q1013 RMK A2992
Conditions at: RJSI (HANAMAKI AIRPORT, JP) observed 2240 UTC 20 May 2022
Temperature: 16.0°C (61°F)
Dewpoint: 10.0°C (50°F) [RH = 68%]
Pressure (altimeter): 29.91 inches Hg (1013.0 mb)
Winds: variable direction winds at 2 MPH (2 knots; 1.0 m/s)
Visibility: 6 or more miles (10+ km)
Ceiling: ceiling and visibility are OK
Clouds: unknown
Weather: no significant weather observed at this time

Forecast for: RJSI (HANAMAKI AIRPORT, JP)
Text: TAF RJSI 211705Z 2118/2300 01004KT 8000 -SHRA FEW010 BKN015 BKN030
Forecast period: 1800 UTC 21 May 2022 to 0100 UTC 22 May 2022
Forecast type: FROM: standard forecast or significant change
Winds: from the N (10 degrees) at 5 MPH (4 knots; 2.1 m/s)
Visibility: 5 miles (8 km)
Ceiling: 1500 feet AGL
Clouds: few clouds at 1000 feet AGL
broken clouds at 1500 feet AGL
broken clouds at 3000 feet AGL
Weather: -SHRA  (light rain showers)
Text: TEMPO 2121/2203 4000 SHRA BR
Forecast period: 2100 UTC 21 May 2022 to 0300 UTC 22 May 2022
Forecast type: TEMPORARY: The following changes expected for less than half the time period
Visibility: 2.49 miles (4.01 km)
Ceiling: unknown
Clouds: missing
Weather: SHRA BR  (rain showers, mist)
Text: BECMG 2201/2203 19005KT
Forecast period: 0100 to 1200 UTC 22 May 2022
Forecast type: BECOMING: Conditions expected to become as follows by 0300 UTC 22 May 2022
Winds: from the S (190 degrees) at 6 MPH (5 knots; 2.6 m/s)
Visibility: 5 miles (8 km)
Ceiling: 1500 feet AGL
Clouds: few clouds at 1000 feet AGL
broken clouds at 1500 feet AGL
broken clouds at 3000 feet AGL
Weather: -SHRA  (light rain showers)
Text: BECMG 2212/2215 01004KT
Forecast period: 1200 UTC 22 May 2022 to 0000 UTC 23 May 2022
Forecast type: BECOMING: Conditions expected to become as follows by 1500 UTC 22 May 2022
Winds: from the N (10 degrees) at 5 MPH (4 knots; 2.1 m/s)
Visibility: 5 miles (8 km)
Ceiling: 1500 feet AGL
Clouds: few clouds at 1000 feet AGL
broken clouds at 1500 feet AGL
broken clouds at 3000 feet AGL
Weather: -SHRA  (light rain showers)